< < Back
Terminal Aerodrome Forecast


Current Version              Previous Versions:   1  2  3  4  5  6  7  8  9  

Terminal Aerodrome Forecast

530
FTUS42 KCHS 231100
TAFCHS
TAF
KCHS 231129Z 2312/2412 36006KT P6SM SKC
     FM231700 32008KT P6SM FEW250
     FM240000 VRB03KT P6SM BKN250=



Latest METAR

164
SAUS80 KWBC 231400
MTRCHS
METAR KCHS 231356Z 35009KT 10SM CLR 15/07 A3010 RMK AO2 SLP190
T01500072


USA.gov is the U.S. government's official web portal to all federal, state and local government web resources and services.